sensor_id;sensor_type;location;lat;lon;timestamp;P1;durP1;ratioP1;P2;durP2;ratioP2
43413;SDS011;29013;49.676;8.606;2023-10-13T00:01:51;5.0;;;2.19;;
43413;SDS011;29013;49.676;8.606;2023-10-13T00:07:15;3.62;;;2.35;;
43413;SDS011;29013;49.676;8.606;2023-10-13T00:12:36;4.94;;;2.36;;
43413;SDS011;29013;49.676;8.606;2023-10-13T00:17:59;3.38;;;2.27;;
43413;SDS011;29013;49.676;8.606;2023-10-13T00:23:23;4.76;;;2.25;;
43413;SDS011;29013;49.676;8.606;2023-10-13T00:28:46;3.88;;;2.3;;
43413;SDS011;29013;49.676;8.606;2023-10-13T00:34:08;7.54;;;2.14;;
43413;SDS011;29013;49.676;8.606;2023-10-13T00:39:32;4.93;;;1.93;;
43413;SDS011;29013;49.676;8.606;2023-10-13T00:44:56;6.0;;;2.04;;
43413;SDS011;29013;49.676;8.606;2023-10-13T00:50:18;5.52;;;2.63;;
43413;SDS011;29013;49.676;8.606;2023-10-13T00:55:43;6.61;;;1.92;;
43413;SDS011;29013;49.676;8.606;2023-10-13T01:01:05;3.87;;;1.94;;
43413;SDS011;29013;49.676;8.606;2023-10-13T01:06:27;3.93;;;1.97;;
43413;SDS011;29013;49.676;8.606;2023-10-13T01:11:54;5.6;;;2.55;;
43413;SDS011;29013;49.676;8.606;2023-10-13T01:17:12;4.54;;;2.27;;
43413;SDS011;29013;49.676;8.606;2023-10-13T01:22:52;7.81;;;2.9;;
43413;SDS011;29013;49.676;8.606;2023-10-13T01:28:15;4.98;;;2.04;;
43413;SDS011;29013;49.676;8.606;2023-10-13T01:33:36;4.59;;;2.18;;
43413;SDS011;29013;49.676;8.606;2023-10-13T01:39:12;4.8;;;2.41;;
43413;SDS011;29013;49.676;8.606;2023-10-13T01:44:35;3.49;;;2.09;;
43413;SDS011;29013;49.676;8.606;2023-10-13T01:49:57;7.33;;;2.35;;
43413;SDS011;29013;49.676;8.606;2023-10-13T01:55:20;5.17;;;1.95;;
43413;SDS011;29013;49.676;8.606;2023-10-13T02:00:44;5.09;;;2.47;;
43413;SDS011;29013;49.676;8.606;2023-10-13T02:06:06;4.32;;;1.89;;
43413;SDS011;29013;49.676;8.606;2023-10-13T02:11:31;5.09;;;2.21;;
43413;SDS011;29013;49.676;8.606;2023-10-13T02:16:56;5.84;;;2.45;;
43413;SDS011;29013;49.676;8.606;2023-10-13T02:22:18;4.29;;;2.38;;
43413;SDS011;29013;49.676;8.606;2023-10-13T02:27:41;4.85;;;2.65;;
43413;SDS011;29013;49.676;8.606;2023-10-13T02:33:19;5.79;;;2.7;;
43413;SDS011;29013;49.676;8.606;2023-10-13T02:38:41;7.05;;;2.43;;
43413;SDS011;29013;49.676;8.606;2023-10-13T02:44:06;6.17;;;2.56;;
43413;SDS011;29013;49.676;8.606;2023-10-13T02:49:29;5.72;;;2.47;;
43413;SDS011;29013;49.676;8.606;2023-10-13T02:54:52;5.37;;;2.54;;
43413;SDS011;29013;49.676;8.606;2023-10-13T03:00:15;4.57;;;2.7;;
43413;SDS011;29013;49.676;8.606;2023-10-13T03:05:37;5.65;;;2.61;;
43413;SDS011;29013;49.676;8.606;2023-10-13T03:10:58;6.33;;;2.49;;
43413;SDS011;29013;49.676;8.606;2023-10-13T03:16:22;5.06;;;2.31;;
43413;SDS011;29013;49.676;8.606;2023-10-13T03:21:46;5.47;;;2.77;;
43413;SDS011;29013;49.676;8.606;2023-10-13T03:27:05;6.25;;;2.61;;
43413;SDS011;29013;49.676;8.606;2023-10-13T03:32:28;4.44;;;2.61;;
43413;SDS011;29013;49.676;8.606;2023-10-13T03:38:07;4.75;;;2.54;;
43413;SDS011;29013;49.676;8.606;2023-10-13T03:43:30;3.85;;;2.46;;
43413;SDS011;29013;49.676;8.606;2023-10-13T03:48:53;3.32;;;2.52;;
43413;SDS011;29013;49.676;8.606;2023-10-13T03:54:17;8.05;;;2.68;;
43413;SDS011;29013;49.676;8.606;2023-10-13T03:59:42;5.82;;;2.56;;
43413;SDS011;29013;49.676;8.606;2023-10-13T04:05:05;4.67;;;2.05;;
43413;SDS011;29013;49.676;8.606;2023-10-13T04:10:30;3.5;;;2.13;;
43413;SDS011;29013;49.676;8.606;2023-10-13T04:15:53;5.38;;;2.24;;
43413;SDS011;29013;49.676;8.606;2023-10-13T04:21:17;7.7;;;2.44;;
43413;SDS011;29013;49.676;8.606;2023-10-13T04:26:41;2.69;;;1.9;;
43413;SDS011;29013;49.676;8.606;2023-10-13T04:32:05;3.53;;;2.1;;
43413;SDS011;29013;49.676;8.606;2023-10-13T04:37:30;3.9;;;2.12;;
43413;SDS011;29013;49.676;8.606;2023-10-13T04:42:54;7.88;;;2.08;;
43413;SDS011;29013;49.676;8.606;2023-10-13T04:48:17;4.11;;;2.26;;
43413;SDS011;29013;49.676;8.606;2023-10-13T04:53:40;3.9;;;2.0;;
43413;SDS011;29013;49.676;8.606;2023-10-13T04:59:26;4.21;;;2.28;;
43413;SDS011;29013;49.676;8.606;2023-10-13T05:04:48;2.35;;;1.87;;
43413;SDS011;29013;49.676;8.606;2023-10-13T05:10:13;2.8;;;1.87;;
43413;SDS011;29013;49.676;8.606;2023-10-13T05:15:43;4.5;;;2.17;;
43413;SDS011;29013;49.676;8.606;2023-10-13T05:21:04;4.53;;;1.87;;
43413;SDS011;29013;49.676;8.606;2023-10-13T05:26:25;4.22;;;2.1;;
43413;SDS011;29013;49.676;8.606;2023-10-13T05:31:49;4.27;;;1.77;;
43413;SDS011;29013;49.676;8.606;2023-10-13T05:37:11;3.57;;;2.34;;
43413;SDS011;29013;49.676;8.606;2023-10-13T05:42:35;3.53;;;1.81;;
43413;SDS011;29013;49.676;8.606;2023-10-13T05:47:54;5.76;;;2.56;;
43413;SDS011;29013;49.676;8.606;2023-10-13T05:53:17;3.33;;;1.89;;
43413;SDS011;29013;49.676;8.606;2023-10-13T05:58:43;2.23;;;1.57;;
43413;SDS011;29013;49.676;8.606;2023-10-13T06:04:08;4.84;;;2.11;;
43413;SDS011;29013;49.676;8.606;2023-10-13T06:09:32;3.55;;;1.72;;
43413;SDS011;29013;49.676;8.606;2023-10-13T06:14:53;4.65;;;1.78;;
43413;SDS011;29013;49.676;8.606;2023-10-13T06:20:16;3.95;;;1.97;;
43413;SDS011;29013;49.676;8.606;2023-10-13T06:25:40;3.31;;;1.73;;
43413;SDS011;29013;49.676;8.606;2023-10-13T06:31:22;4.83;;;1.89;;
43413;SDS011;29013;49.676;8.606;2023-10-13T06:36:43;4.6;;;1.85;;
43413;SDS011;29013;49.676;8.606;2023-10-13T06:42:05;4.16;;;1.63;;
43413;SDS011;29013;49.676;8.606;2023-10-13T06:47:29;2.84;;;1.42;;
43413;SDS011;29013;49.676;8.606;2023-10-13T06:52:53;3.85;;;1.42;;
43413;SDS011;29013;49.676;8.606;2023-10-13T06:58:17;2.87;;;1.55;;
43413;SDS011;29013;49.676;8.606;2023-10-13T07:03:46;5.49;;;1.84;;
43413;SDS011;29013;49.676;8.606;2023-10-13T07:09:06;2.92;;;1.55;;
43413;SDS011;29013;49.676;8.606;2023-10-13T07:14:30;3.18;;;1.54;;
43413;SDS011;29013;49.676;8.606;2023-10-13T07:19:56;3.23;;;1.58;;
43413;SDS011;29013;49.676;8.606;2023-10-13T07:25:19;2.67;;;1.31;;
43413;SDS011;29013;49.676;8.606;2023-10-13T07:30:42;3.7;;;1.29;;
43413;SDS011;29013;49.676;8.606;2023-10-13T07:36:07;2.67;;;1.55;;
43413;SDS011;29013;49.676;8.606;2023-10-13T07:41:28;1.67;;;1.11;;
43413;SDS011;29013;49.676;8.606;2023-10-13T07:46:53;2.01;;;1.43;;
43413;SDS011;29013;49.676;8.606;2023-10-13T07:52:16;2.69;;;1.2;;
43413;SDS011;29013;49.676;8.606;2023-10-13T07:57:56;4.02;;;1.68;;
43413;SDS011;29013;49.676;8.606;2023-10-13T08:03:33;3.36;;;1.85;;
43413;SDS011;29013;49.676;8.606;2023-10-13T08:08:56;1.82;;;1.09;;
43413;SDS011;29013;49.676;8.606;2023-10-13T08:14:18;4.13;;;1.45;;
43413;SDS011;29013;49.676;8.606;2023-10-13T08:19:40;1.83;;;1.32;;
43413;SDS011;29013;49.676;8.606;2023-10-13T08:25:22;3.57;;;1.58;;
43413;SDS011;29013;49.676;8.606;2023-10-13T08:30:47;2.87;;;1.2;;
43413;SDS011;29013;49.676;8.606;2023-10-13T08:36:12;3.01;;;1.18;;
43413;SDS011;29013;49.676;8.606;2023-10-13T08:41:37;4.4;;;1.26;;
43413;SDS011;29013;49.676;8.606;2023-10-13T08:46:58;2.46;;;1.11;;
43413;SDS011;29013;49.676;8.606;2023-10-13T08:52:38;4.35;;;1.58;;
43413;SDS011;29013;49.676;8.606;2023-10-13T08:58:01;3.01;;;1.27;;
43413;SDS011;29013;49.676;8.606;2023-10-13T09:03:25;3.63;;;1.42;;
43413;SDS011;29013;49.676;8.606;2023-10-13T09:09:54;4.95;;;1.62;;
43413;SDS011;29013;49.676;8.606;2023-10-13T09:15:16;2.55;;;1.1;;
43413;SDS011;29013;49.676;8.606;2023-10-13T09:20:40;3.31;;;1.44;;
43413;SDS011;29013;49.676;8.606;2023-10-13T09:26:06;3.79;;;1.35;;
43413;SDS011;29013;49.676;8.606;2023-10-13T09:31:25;7.45;;;1.65;;
43413;SDS011;29013;49.676;8.606;2023-10-13T09:37:09;3.06;;;1.58;;
43413;SDS011;29013;49.676;8.606;2023-10-13T09:42:33;3.56;;;1.72;;
43413;SDS011;29013;49.676;8.606;2023-10-13T09:47:53;3.05;;;1.46;;
43413;SDS011;29013;49.676;8.606;2023-10-13T09:53:19;2.76;;;1.58;;
43413;SDS011;29013;49.676;8.606;2023-10-13T09:58:46;5.53;;;1.61;;
43413;SDS011;29013;49.676;8.606;2023-10-13T10:04:08;3.31;;;1.49;;
43413;SDS011;29013;49.676;8.606;2023-10-13T10:09:41;3.06;;;1.49;;
43413;SDS011;29013;49.676;8.606;2023-10-13T10:15:09;2.05;;;1.21;;
43413;SDS011;29013;49.676;8.606;2023-10-13T10:20:36;8.25;;;1.78;;
43413;SDS011;29013;49.676;8.606;2023-10-13T10:26:08;1.39;;;1.16;;
43413;SDS011;29013;49.676;8.606;2023-10-13T10:31:30;4.83;;;1.3;;
43413;SDS011;29013;49.676;8.606;2023-10-13T10:36:54;2.47;;;1.26;;
43413;SDS011;29013;49.676;8.606;2023-10-13T10:42:22;4.39;;;1.51;;
43413;SDS011;29013;49.676;8.606;2023-10-13T10:47:48;6.94;;;1.51;;
43413;SDS011;29013;49.676;8.606;2023-10-13T10:53:13;2.29;;;1.01;;
43413;SDS011;29013;49.676;8.606;2023-10-13T10:58:39;3.17;;;1.29;;
43413;SDS011;29013;49.676;8.606;2023-10-13T11:03:58;3.16;;;1.3;;
43413;SDS011;29013;49.676;8.606;2023-10-13T11:09:26;3.47;;;1.48;;
43413;SDS011;29013;49.676;8.606;2023-10-13T11:14:45;2.48;;;1.47;;
43413;SDS011;29013;49.676;8.606;2023-10-13T11:20:11;3.02;;;1.4;;
43413;SDS011;29013;49.676;8.606;2023-10-13T11:25:33;5.2;;;1.5;;
43413;SDS011;29013;49.676;8.606;2023-10-13T11:30:58;2.36;;;1.3;;
43413;SDS011;29013;49.676;8.606;2023-10-13T11:36:24;3.83;;;1.43;;
43413;SDS011;29013;49.676;8.606;2023-10-13T11:41:42;4.26;;;1.51;;
43413;SDS011;29013;49.676;8.606;2023-10-13T11:47:08;3.14;;;1.49;;
43413;SDS011;29013;49.676;8.606;2023-10-13T11:52:32;3.17;;;1.52;;
43413;SDS011;29013;49.676;8.606;2023-10-13T11:57:55;2.49;;;1.19;;
43413;SDS011;29013;49.676;8.606;2023-10-13T12:03:20;1.75;;;1.3;;
43413;SDS011;29013;49.676;8.606;2023-10-13T12:08:43;4.02;;;1.13;;
43413;SDS011;29013;49.676;8.606;2023-10-13T12:14:08;1.94;;;1.17;;
43413;SDS011;29013;49.676;8.606;2023-10-13T12:19:36;1.38;;;1.19;;
43413;SDS011;29013;49.676;8.606;2023-10-13T12:24:59;3.1;;;1.73;;
43413;SDS011;29013;49.676;8.606;2023-10-13T12:30:20;2.54;;;1.31;;
43413;SDS011;29013;49.676;8.606;2023-10-13T12:35:45;2.93;;;1.49;;
43413;SDS011;29013;49.676;8.606;2023-10-13T12:41:06;4.04;;;1.55;;
43413;SDS011;29013;49.676;8.606;2023-10-13T12:46:27;6.44;;;1.59;;
43413;SDS011;29013;49.676;8.606;2023-10-13T12:51:53;2.84;;;1.48;;
43413;SDS011;29013;49.676;8.606;2023-10-13T12:57:15;1.61;;;1.33;;
43413;SDS011;29013;49.676;8.606;2023-10-13T13:02:37;2.31;;;1.36;;
43413;SDS011;29013;49.676;8.606;2023-10-13T13:07:59;3.46;;;1.53;;
43413;SDS011;29013;49.676;8.606;2023-10-13T13:13:24;2.52;;;1.28;;
43413;SDS011;29013;49.676;8.606;2023-10-13T13:18:45;1.79;;;1.35;;
43413;SDS011;29013;49.676;8.606;2023-10-13T13:24:27;3.69;;;1.49;;
43413;SDS011;29013;49.676;8.606;2023-10-13T13:30:08;3.88;;;1.52;;
43413;SDS011;29013;49.676;8.606;2023-10-13T13:35:30;3.48;;;1.7;;
43413;SDS011;29013;49.676;8.606;2023-10-13T13:40:52;3.06;;;1.34;;
43413;SDS011;29013;49.676;8.606;2023-10-13T13:46:38;4.27;;;1.51;;
43413;SDS011;29013;49.676;8.606;2023-10-13T13:52:02;2.16;;;1.29;;
43413;SDS011;29013;49.676;8.606;2023-10-13T13:57:25;4.26;;;2.01;;
43413;SDS011;29013;49.676;8.606;2023-10-13T14:02:46;3.46;;;1.84;;
43413;SDS011;29013;49.676;8.606;2023-10-13T14:08:10;1.61;;;1.36;;
43413;SDS011;29013;49.676;8.606;2023-10-13T14:13:33;3.31;;;1.43;;
43413;SDS011;29013;49.676;8.606;2023-10-13T14:18:56;4.71;;;1.59;;
43413;SDS011;29013;49.676;8.606;2023-10-13T14:24:20;3.69;;;1.51;;
43413;SDS011;29013;49.676;8.606;2023-10-13T14:29:41;5.38;;;1.81;;
43413;SDS011;29013;49.676;8.606;2023-10-13T14:35:07;3.88;;;1.64;;
43413;SDS011;29013;49.676;8.606;2023-10-13T14:52:36;3.62;;;1.64;;
43413;SDS011;29013;49.676;8.606;2023-10-13T14:57:59;3.61;;;1.73;;
43413;SDS011;29013;49.676;8.606;2023-10-13T15:03:25;3.38;;;1.43;;
43413;SDS011;29013;49.676;8.606;2023-10-13T15:08:50;3.13;;;1.49;;
43413;SDS011;29013;49.676;8.606;2023-10-13T15:14:09;4.95;;;1.58;;
43413;SDS011;29013;49.676;8.606;2023-10-13T15:19:28;4.69;;;1.23;;
43413;SDS011;29013;49.676;8.606;2023-10-13T15:24:53;2.98;;;1.25;;
43413;SDS011;29013;49.676;8.606;2023-10-13T15:30:17;3.74;;;1.85;;
43413;SDS011;29013;49.676;8.606;2023-10-13T15:35:42;6.71;;;1.55;;
43413;SDS011;29013;49.676;8.606;2023-10-13T15:41:05;3.13;;;1.47;;
43413;SDS011;29013;49.676;8.606;2023-10-13T15:46:31;2.37;;;1.37;;
43413;SDS011;29013;49.676;8.606;2023-10-13T15:51:53;2.79;;;1.35;;
43413;SDS011;29013;49.676;8.606;2023-10-13T15:57:18;6.61;;;1.5;;
43413;SDS011;29013;49.676;8.606;2023-10-13T16:02:43;3.68;;;1.44;;
43413;SDS011;29013;49.676;8.606;2023-10-13T16:08:07;4.32;;;1.49;;
43413;SDS011;29013;49.676;8.606;2023-10-13T16:13:28;3.66;;;1.19;;
43413;SDS011;29013;49.676;8.606;2023-10-13T16:18:53;5.68;;;1.44;;
43413;SDS011;29013;49.676;8.606;2023-10-13T16:24:17;3.55;;;1.53;;
43413;SDS011;29013;49.676;8.606;2023-10-13T16:29:41;4.82;;;1.3;;
43413;SDS011;29013;49.676;8.606;2023-10-13T16:35:06;2.76;;;1.38;;
43413;SDS011;29013;49.676;8.606;2023-10-13T16:40:29;3.96;;;1.57;;
43413;SDS011;29013;49.676;8.606;2023-10-13T16:45:51;2.75;;;1.12;;
43413;SDS011;29013;49.676;8.606;2023-10-13T16:51:14;7.55;;;1.6;;
43413;SDS011;29013;49.676;8.606;2023-10-13T16:56:38;5.26;;;1.58;;
43413;SDS011;29013;49.676;8.606;2023-10-13T17:02:02;8.8;;;1.89;;
43413;SDS011;29013;49.676;8.606;2023-10-13T17:07:26;3.82;;;1.59;;
43413;SDS011;29013;49.676;8.606;2023-10-13T17:12:50;4.09;;;1.48;;
43413;SDS011;29013;49.676;8.606;2023-10-13T17:18:15;3.85;;;1.72;;
43413;SDS011;29013;49.676;8.606;2023-10-13T17:23:38;4.56;;;1.51;;
43413;SDS011;29013;49.676;8.606;2023-10-13T17:29:03;3.36;;;1.33;;
43413;SDS011;29013;49.676;8.606;2023-10-13T17:34:28;2.9;;;1.41;;
43413;SDS011;29013;49.676;8.606;2023-10-13T17:39:53;2.18;;;1.29;;
43413;SDS011;29013;49.676;8.606;2023-10-13T17:45:16;4.25;;;1.41;;
43413;SDS011;29013;49.676;8.606;2023-10-13T17:50:37;3.6;;;1.37;;
43413;SDS011;29013;49.676;8.606;2023-10-13T17:56:03;2.96;;;1.48;;
43413;SDS011;29013;49.676;8.606;2023-10-13T18:01:26;3.47;;;1.02;;
43413;SDS011;29013;49.676;8.606;2023-10-13T18:06:50;7.29;;;1.53;;
43413;SDS011;29013;49.676;8.606;2023-10-13T18:12:33;3.27;;;1.36;;
43413;SDS011;29013;49.676;8.606;2023-10-13T18:17:55;1.86;;;1.57;;
43413;SDS011;29013;49.676;8.606;2023-10-13T18:23:16;2.45;;;1.12;;
43413;SDS011;29013;49.676;8.606;2023-10-13T18:28:40;2.48;;;1.24;;
43413;SDS011;29013;49.676;8.606;2023-10-13T18:34:03;3.28;;;1.1;;
43413;SDS011;29013;49.676;8.606;2023-10-13T18:39:25;1.93;;;0.99;;
43413;SDS011;29013;49.676;8.606;2023-10-13T18:44:50;1.96;;;0.97;;
43413;SDS011;29013;49.676;8.606;2023-10-13T18:50:19;4.1;;;1.12;;
43413;SDS011;29013;49.676;8.606;2023-10-13T18:55:43;1.56;;;0.95;;
43413;SDS011;29013;49.676;8.606;2023-10-13T19:01:11;4.22;;;1.27;;
43413;SDS011;29013;49.676;8.606;2023-10-13T19:06:32;2.22;;;1.23;;
43413;SDS011;29013;49.676;8.606;2023-10-13T19:11:56;1.65;;;1.42;;
43413;SDS011;29013;49.676;8.606;2023-10-13T19:17:17;1.37;;;0.99;;
43413;SDS011;29013;49.676;8.606;2023-10-13T19:22:40;3.96;;;1.25;;
43413;SDS011;29013;49.676;8.606;2023-10-13T19:28:23;3.86;;;1.23;;
43413;SDS011;29013;49.676;8.606;2023-10-13T19:33:47;3.44;;;1.1;;
43413;SDS011;29013;49.676;8.606;2023-10-13T19:39:11;1.49;;;1.02;;
43413;SDS011;29013;49.676;8.606;2023-10-13T19:44:51;3.81;;;1.29;;
43413;SDS011;29013;49.676;8.606;2023-10-13T19:50:38;5.96;;;1.14;;
43413;SDS011;29013;49.676;8.606;2023-10-13T19:56:00;2.31;;;1.17;;
43413;SDS011;29013;49.676;8.606;2023-10-13T20:01:26;2.4;;;0.86;;
43413;SDS011;29013;49.676;8.606;2023-10-13T20:06:50;4.44;;;0.87;;
43413;SDS011;29013;49.676;8.606;2023-10-13T20:12:16;3.84;;;1.44;;
43413;SDS011;29013;49.676;8.606;2023-10-13T20:23:00;2.13;;;1.05;;
43413;SDS011;29013;49.676;8.606;2023-10-13T20:28:27;1.24;;;0.79;;
43413;SDS011;29013;49.676;8.606;2023-10-13T20:33:51;2.84;;;1.0;;
43413;SDS011;29013;49.676;8.606;2023-10-13T20:39:12;4.34;;;1.11;;
43413;SDS011;29013;49.676;8.606;2023-10-13T20:44:36;2.12;;;0.94;;
43413;SDS011;29013;49.676;8.606;2023-10-13T20:49:58;4.66;;;1.14;;
43413;SDS011;29013;49.676;8.606;2023-10-13T20:55:23;2.18;;;0.91;;
43413;SDS011;29013;49.676;8.606;2023-10-13T21:00:46;3.11;;;0.98;;
43413;SDS011;29013;49.676;8.606;2023-10-13T21:06:12;1.58;;;0.99;;
43413;SDS011;29013;49.676;8.606;2023-10-13T21:11:37;4.73;;;0.96;;
43413;SDS011;29013;49.676;8.606;2023-10-13T21:17:24;2.87;;;0.98;;
43413;SDS011;29013;49.676;8.606;2023-10-13T21:22:45;1.79;;;1.04;;
43413;SDS011;29013;49.676;8.606;2023-10-13T21:28:08;6.99;;;1.33;;
43413;SDS011;29013;49.676;8.606;2023-10-13T21:33:33;1.85;;;1.22;;
43413;SDS011;29013;49.676;8.606;2023-10-13T21:39:12;2.11;;;1.16;;
43413;SDS011;29013;49.676;8.606;2023-10-13T21:44:35;3.09;;;0.94;;
43413;SDS011;29013;49.676;8.606;2023-10-13T21:49:54;1.96;;;0.86;;
43413;SDS011;29013;49.676;8.606;2023-10-13T21:55:19;3.89;;;1.23;;
43413;SDS011;29013;49.676;8.606;2023-10-13T22:00:44;5.22;;;1.16;;
43413;SDS011;29013;49.676;8.606;2023-10-13T22:06:09;4.43;;;1.09;;
43413;SDS011;29013;49.676;8.606;2023-10-13T22:11:34;3.86;;;1.42;;
43413;SDS011;29013;49.676;8.606;2023-10-13T22:16:57;2.98;;;1.06;;
43413;SDS011;29013;49.676;8.606;2023-10-13T22:22:23;4.31;;;1.27;;
43413;SDS011;29013;49.676;8.606;2023-10-13T22:27:48;5.14;;;1.4;;
43413;SDS011;29013;49.676;8.606;2023-10-13T22:33:13;2.83;;;1.02;;
43413;SDS011;29013;49.676;8.606;2023-10-13T22:38:39;2.33;;;1.33;;
43413;SDS011;29013;49.676;8.606;2023-10-13T22:44:02;1.3;;;1.11;;
43413;SDS011;29013;49.676;8.606;2023-10-13T22:49:26;2.44;;;1.26;;
43413;SDS011;29013;49.676;8.606;2023-10-13T22:54:51;1.31;;;1.17;;
43413;SDS011;29013;49.676;8.606;2023-10-13T23:00:20;2.91;;;1.29;;
43413;SDS011;29013;49.676;8.606;2023-10-13T23:05:41;3.05;;;1.21;;
43413;SDS011;29013;49.676;8.606;2023-10-13T23:11:05;6.44;;;1.08;;
43413;SDS011;29013;49.676;8.606;2023-10-13T23:16:28;2.64;;;1.46;;
43413;SDS011;29013;49.676;8.606;2023-10-13T23:22:12;2.09;;;1.33;;
43413;SDS011;29013;49.676;8.606;2023-10-13T23:27:33;2.04;;;1.24;;
43413;SDS011;29013;49.676;8.606;2023-10-13T23:32:58;2.12;;;1.21;;
43413;SDS011;29013;49.676;8.606;2023-10-13T23:38:23;1.89;;;1.17;;
43413;SDS011;29013;49.676;8.606;2023-10-13T23:44:36;3.19;;;1.55;;
43413;SDS011;29013;49.676;8.606;2023-10-13T23:49:56;3.59;;;1.76;;
43413;SDS011;29013;49.676;8.606;2023-10-13T23:55:19;2.11;;;1.32;;
